createdAt,value
2023-02-06T00:01:31.772Z,97.53
2023-02-06T00:04:01.049Z,97.41
2023-02-06T00:06:28.961Z,97.38
2023-02-06T00:08:56.987Z,97.25
2023-02-06T00:11:25.468Z,97.35
2023-02-06T00:13:53.468Z,97.18
2023-02-06T00:16:23.495Z,97.00
2023-02-06T00:18:51.841Z,97.02
2023-02-06T00:21:22.111Z,96.78
2023-02-06T00:23:50.651Z,96.99
2023-02-06T00:26:19.093Z,96.45
2023-02-06T00:28:47.786Z,96.61
2023-02-06T00:31:16.690Z,96.71
2023-02-06T00:33:44.700Z,96.50
2023-02-06T00:36:12.909Z,96.59
2023-02-06T00:38:42.332Z,96.37
2023-02-06T00:41:10.315Z,96.34
2023-02-06T00:43:38.491Z,96.30
2023-02-06T00:46:06.892Z,96.07
2023-02-06T00:48:34.879Z,96.05
2023-02-06T00:51:02.716Z,95.75
2023-02-06T00:53:31.027Z,95.82
2023-02-06T00:56:00.364Z,95.65
2023-02-06T00:58:28.238Z,95.85
2023-02-06T01:00:56.267Z,95.58
2023-02-06T01:03:24.176Z,95.81
2023-02-06T01:05:52.010Z,95.57
2023-02-06T01:08:20.010Z,95.64
2023-02-06T01:10:47.976Z,95.31
2023-02-06T01:13:17.224Z,95.32
2023-02-06T01:15:45.452Z,95.47
2023-02-06T01:18:13.566Z,95.13
2023-02-06T01:20:42.230Z,94.83
2023-02-06T01:23:10.697Z,94.97
2023-02-06T01:25:38.800Z,95.18
2023-02-06T01:28:06.683Z,94.88
2023-02-06T01:30:36.069Z,94.97
2023-02-06T01:33:03.971Z,95.02
2023-02-06T01:35:31.827Z,94.78
2023-02-06T01:37:59.823Z,94.77
2023-02-06T01:40:27.997Z,94.79
2023-02-06T01:42:55.857Z,94.59
2023-02-06T01:45:39.381Z,94.60
2023-02-06T01:48:11.386Z,94.40
2023-02-06T01:50:42.963Z,94.47
2023-02-06T01:53:11.267Z,94.50
2023-02-06T01:55:42.729Z,94.47
2023-02-06T01:58:15.568Z,94.55
2023-02-06T02:00:45.217Z,94.29
2023-02-06T02:03:13.478Z,94.27
2023-02-06T02:05:44.594Z,94.52
2023-02-06T02:08:18.614Z,94.06
2023-02-06T02:10:47.106Z,94.00
2023-02-06T02:13:15.220Z,94.00
2023-02-06T02:15:57.456Z,93.97
2023-02-06T02:18:43.713Z,94.05
2023-02-06T02:22:05.433Z,93.83
2023-02-06T02:24:49.935Z,93.97
2023-02-06T02:27:51.844Z,93.84
2023-02-06T02:30:52.600Z,93.80
2023-02-06T02:33:48.203Z,94.01
2023-02-06T02:36:23.569Z,93.88
2023-02-06T02:39:00.252Z,93.69
2023-02-06T02:41:33.793Z,93.37
2023-02-06T02:44:08.880Z,93.75
2023-02-06T02:46:39.958Z,93.88
2023-02-06T02:49:12.759Z,93.89
2023-02-06T02:51:43.099Z,93.86
2023-02-06T02:54:11.753Z,93.65
2023-02-06T02:56:40.093Z,93.36
2023-02-06T02:59:12.615Z,93.30
2023-02-06T03:01:45.374Z,93.33
2023-02-06T03:04:17.909Z,93.50
2023-02-06T03:07:05.526Z,93.42
2023-02-06T03:09:47.037Z,93.37
2023-02-06T03:12:23.256Z,93.14
2023-02-06T03:14:55.193Z,93.15
2023-02-06T03:17:32.705Z,93.01
2023-02-06T03:20:03.075Z,93.18
2023-02-06T03:22:34.244Z,93.22
2023-02-06T03:25:05.847Z,93.08
2023-02-06T03:27:35.026Z,93.25
2023-02-06T03:30:05.716Z,93.00
2023-02-06T03:32:36.042Z,93.13
2023-02-06T03:35:08.198Z,92.79
2023-02-06T03:37:39.263Z,93.01
2023-02-06T03:40:09.649Z,92.89
2023-02-06T03:42:42.240Z,92.95
2023-02-06T03:45:17.013Z,92.67
2023-02-06T03:47:47.187Z,92.86
2023-02-06T03:50:16.145Z,92.82
2023-02-06T03:52:49.811Z,92.82
2023-02-06T03:55:21.249Z,92.67
2023-02-06T03:57:54.006Z,92.45
2023-02-06T04:00:22.898Z,92.38
2023-02-06T04:02:52.544Z,92.85
2023-02-06T04:05:20.972Z,92.49
2023-02-06T04:07:50.515Z,92.66
2023-02-06T04:10:18.627Z,92.80
2023-02-06T04:12:46.549Z,92.39
2023-02-06T04:15:14.390Z,92.72
2023-02-06T04:17:57.521Z,92.57
2023-02-06T04:20:27.772Z,92.51
2023-02-06T04:22:57.542Z,92.74
2023-02-06T04:25:25.607Z,92.19
2023-02-06T04:27:53.636Z,92.31
2023-02-06T04:30:21.778Z,92.13
2023-02-06T04:32:49.592Z,92.36
2023-02-06T04:35:17.680Z,92.60
2023-02-06T04:37:45.644Z,92.67
2023-02-06T04:40:15.099Z,92.70
2023-02-06T04:42:43.218Z,92.26
2023-02-06T04:45:11.239Z,92.32
2023-02-06T04:47:39.145Z,92.62
2023-02-06T04:50:08.317Z,92.04
2023-02-06T04:52:36.376Z,92.02
2023-02-06T04:55:04.246Z,92.20
2023-02-06T04:57:33.583Z,92.08
2023-02-06T05:00:01.645Z,92.01
2023-02-06T05:02:29.513Z,92.21
2023-02-06T05:04:57.490Z,92.41
2023-02-06T05:07:25.631Z,92.08
2023-02-06T05:09:53.489Z,92.15
2023-02-06T05:12:21.489Z,91.89
2023-02-06T05:14:50.794Z,92.11
2023-02-06T05:17:18.618Z,91.87
2023-02-06T05:19:46.982Z,91.98
2023-02-06T05:22:14.956Z,92.47
2023-02-06T05:24:42.779Z,92.18
2023-02-06T05:27:10.793Z,91.94
2023-02-06T05:29:38.791Z,92.02
2023-02-06T05:32:08.083Z,92.12
2023-02-06T05:34:36.091Z,92.08
2023-02-06T05:37:04.070Z,91.99
2023-02-06T05:39:31.929Z,92.15
2023-02-06T05:41:59.974Z,92.08
2023-02-06T05:44:27.971Z,92.24
2023-02-06T05:46:55.860Z,92.09
2023-02-06T05:49:25.212Z,91.96
2023-02-06T05:51:53.265Z,92.02
2023-02-06T05:54:21.086Z,91.95
2023-02-06T05:56:49.107Z,92.27
2023-02-06T05:59:17.091Z,92.34
2023-02-06T06:01:44.890Z,92.21
2023-02-06T06:04:13.286Z,92.46
2023-02-06T06:06:42.880Z,92.27
2023-02-06T06:09:10.714Z,92.03
2023-02-06T06:11:38.739Z,92.23
2023-02-06T06:14:06.653Z,92.12
2023-02-06T06:16:34.603Z,92.34
2023-02-06T06:19:03.110Z,91.94
2023-02-06T06:21:31.239Z,92.32
2023-02-06T06:24:00.683Z,92.28
2023-02-06T06:26:28.854Z,92.04
2023-02-06T06:28:57.496Z,92.53
2023-02-06T06:31:25.439Z,92.33
2023-02-06T06:33:54.403Z,92.35
2023-02-06T06:36:22.313Z,92.12
2023-02-06T06:38:50.272Z,92.31
2023-02-06T06:41:19.800Z,92.26
2023-02-06T06:43:47.910Z,92.24
2023-02-06T06:46:16.672Z,92.37
2023-02-06T06:48:44.660Z,92.42
2023-02-06T06:51:12.484Z,92.26
2023-02-06T06:53:40.825Z,92.21
2023-02-06T06:56:11.432Z,92.02
2023-02-06T06:58:40.867Z,91.99
2023-02-06T07:01:09.678Z,92.05
2023-02-06T07:03:37.849Z,92.35
2023-02-06T07:06:06.338Z,92.39
2023-02-06T07:08:34.457Z,92.70
2023-02-06T07:11:02.447Z,92.51
2023-02-06T07:13:30.294Z,92.37
2023-02-06T07:15:59.494Z,92.67
2023-02-06T07:18:27.488Z,92.55
2023-02-06T07:20:55.337Z,92.42
2023-02-06T07:23:23.225Z,92.22
2023-02-06T07:25:51.273Z,92.93
2023-02-06T07:28:19.263Z,92.45
2023-02-06T07:30:48.156Z,92.61
2023-02-06T07:33:17.608Z,92.51
2023-02-06T07:35:45.458Z,92.85
2023-02-06T07:38:13.288Z,92.67
2023-02-06T07:40:45.547Z,92.84
2023-02-06T07:43:14.386Z,92.53
2023-02-06T07:45:42.452Z,92.70
2023-02-06T07:48:10.394Z,92.55
2023-02-06T07:50:39.792Z,92.82
2023-02-06T07:53:07.996Z,92.75
2023-02-06T07:55:37.892Z,93.28
2023-02-06T07:58:06.032Z,93.28
2023-02-06T08:00:34.109Z,93.44
2023-02-06T08:03:01.900Z,93.43
2023-02-06T08:05:29.853Z,93.74
2023-02-06T08:07:59.322Z,94.62
2023-02-06T08:10:27.583Z,95.17
2023-02-06T08:12:55.500Z,95.77
2023-02-06T08:15:23.591Z,96.91
2023-02-06T08:17:51.412Z,97.71
2023-02-06T08:20:19.384Z,98.26
2023-02-06T08:22:47.735Z,98.19
2023-02-06T08:25:17.224Z,99.65
2023-02-06T08:27:45.085Z,99.53
2023-02-06T08:30:14.523Z,99.59
2023-02-06T08:32:42.392Z,98.28
2023-02-06T08:35:10.279Z,98.48
2023-02-06T08:37:38.350Z,96.91
2023-02-06T08:40:07.017Z,96.64
2023-02-06T08:42:36.323Z,95.94
2023-02-06T08:45:04.422Z,95.71
2023-02-06T08:47:32.294Z,94.36
2023-02-06T08:50:02.888Z,92.50
2023-02-06T08:52:31.501Z,90.82
2023-02-06T08:54:59.337Z,88.78
2023-02-06T08:57:27.152Z,86.26
2023-02-06T08:59:56.985Z,84.13
2023-02-06T09:02:24.868Z,84.15
2023-02-06T09:04:52.716Z,82.56
2023-02-06T09:07:21.880Z,81.28
2023-02-06T09:09:49.732Z,80.83
2023-02-06T09:12:17.650Z,79.54
2023-02-06T09:14:45.957Z,79.09
2023-02-06T09:17:15.196Z,77.90
2023-02-06T09:19:43.195Z,77.83
2023-02-06T09:22:11.223Z,76.86
2023-02-06T09:24:39.179Z,75.91
2023-02-06T09:27:07.090Z,75.09
2023-02-06T09:29:35.320Z,73.78
2023-02-06T09:32:03.235Z,72.54
2023-02-06T09:34:32.476Z,71.86
2023-02-06T09:37:03.724Z,70.62
2023-02-06T09:39:32.252Z,70.92
2023-02-06T09:42:05.788Z,69.58
2023-02-06T09:44:37.293Z,69.53
2023-02-06T09:47:18.545Z,68.26
2023-02-06T09:49:51.182Z,69.16
2023-02-06T09:52:43.903Z,67.13
2023-02-06T09:55:19.333Z,68.04
2023-02-06T09:57:58.501Z,67.36
2023-02-06T10:00:38.774Z,65.78
2023-02-06T10:03:37.624Z,63.89
2023-02-06T10:06:19.141Z,64.25
2023-02-06T10:08:54.700Z,64.03
2023-02-06T10:11:33.678Z,63.78
2023-02-06T10:14:05.611Z,63.78
2023-02-06T10:16:39.676Z,64.08
2023-02-06T10:19:15.064Z,64.31
2023-02-06T10:21:49.506Z,64.32
2023-02-06T10:24:25.224Z,64.51
2023-02-06T10:26:54.613Z,64.35
2023-02-06T10:29:30.208Z,63.73
2023-02-06T10:32:14.224Z,63.96
2023-02-06T10:35:15.861Z,62.89
2023-02-06T10:38:14.982Z,62.28
2023-02-06T10:40:53.415Z,62.97
2023-02-06T10:43:32.122Z,63.44
2023-02-06T10:46:09.956Z,63.97
2023-02-06T10:48:44.582Z,64.15
2023-02-06T10:51:20.936Z,63.78
2023-02-06T10:53:52.904Z,62.55
2023-02-06T10:56:25.379Z,62.83
2023-02-06T10:58:57.114Z,61.99
2023-02-06T11:01:27.480Z,62.73
2023-02-06T11:03:59.941Z,62.73
2023-02-06T11:06:31.181Z,62.36
2023-02-06T11:09:00.602Z,62.26
2023-02-06T11:11:30.803Z,61.90
2023-02-06T11:14:02.754Z,62.04
2023-02-06T11:16:32.089Z,61.81
2023-02-06T11:19:09.924Z,62.42
2023-02-06T11:21:54.053Z,62.29
2023-02-06T11:24:25.179Z,62.35
2023-02-06T11:26:56.822Z,63.05
2023-02-06T11:29:28.075Z,62.85
2023-02-06T11:31:58.660Z,62.67
2023-02-06T11:34:32.465Z,63.36
2023-02-06T11:37:03.161Z,63.30
2023-02-06T11:39:34.533Z,63.04
2023-02-06T11:42:06.427Z,62.95
2023-02-06T11:44:39.748Z,62.99
2023-02-06T11:47:21.914Z,62.77
2023-02-06T11:49:49.975Z,62.28
2023-02-06T11:52:30.168Z,62.52
2023-02-06T11:55:02.314Z,63.04
2023-02-06T11:57:33.704Z,63.34
2023-02-06T12:00:06.160Z,62.87
2023-02-06T12:02:36.040Z,62.74
2023-02-06T12:05:11.858Z,63.64
2023-02-06T12:07:43.990Z,62.58
2023-02-06T12:10:17.521Z,63.16
2023-02-06T12:12:50.626Z,63.25
2023-02-06T12:15:46.686Z,63.15
2023-02-06T12:18:14.662Z,64.02
2023-02-06T12:20:51.334Z,63.83
2023-02-06T12:23:23.960Z,64.16
2023-02-06T12:25:57.709Z,63.98
2023-02-06T12:28:32.548Z,63.62
2023-02-06T12:31:05.039Z,63.12
2023-02-06T12:33:40.405Z,62.52
2023-02-06T12:36:16.798Z,62.22
2023-02-06T12:38:51.490Z,62.98
2023-02-06T12:41:41.977Z,62.94
2023-02-06T12:44:22.975Z,63.57
2023-02-06T12:46:56.150Z,63.67
2023-02-06T12:49:28.554Z,63.16
2023-02-06T12:52:04.871Z,63.05
2023-02-06T12:54:37.711Z,62.70
2023-02-06T12:57:13.737Z,62.06
2023-02-06T13:00:10.162Z,61.81
2023-02-06T13:03:05.369Z,62.17
2023-02-06T13:05:37.820Z,62.24
2023-02-06T13:08:08.925Z,62.27
2023-02-06T13:10:38.637Z,62.27
2023-02-06T13:13:08.195Z,62.46
2023-02-06T13:15:39.794Z,62.38
2023-02-06T13:18:50.760Z,62.61
2023-02-06T13:21:21.506Z,62.69
2023-02-06T13:24:12.643Z,63.05
2023-02-06T13:27:12.010Z,63.29
2023-02-06T13:29:42.846Z,63.82
2023-02-06T13:32:46.492Z,64.16
2023-02-06T13:35:23.136Z,64.09
2023-02-06T13:37:53.039Z,64.53
2023-02-06T13:40:30.619Z,65.35
2023-02-06T13:43:02.742Z,64.97
2023-02-06T13:45:35.325Z,65.69
2023-02-06T13:48:31.326Z,65.99
2023-02-06T13:51:18.638Z,66.56
2023-02-06T13:54:17.209Z,66.25
2023-02-06T13:57:01.089Z,66.78
2023-02-06T13:59:31.381Z,67.05
2023-02-06T14:02:05.347Z,67.84
2023-02-06T14:04:34.608Z,68.02
2023-02-06T14:07:23.942Z,67.52
2023-02-06T14:10:05.454Z,67.59
2023-02-06T14:12:49.828Z,67.84
2023-02-06T14:15:28.565Z,68.31
2023-02-06T14:18:09.000Z,68.53
2023-02-06T14:20:48.628Z,68.52
2023-02-06T14:23:38.500Z,68.78
2023-02-06T14:26:20.074Z,69.40
2023-02-06T14:28:59.046Z,69.35
2023-02-06T14:31:40.659Z,69.96
2023-02-06T14:34:24.456Z,69.88
2023-02-06T14:37:25.876Z,69.94
2023-02-06T14:39:55.783Z,70.44
2023-02-06T14:42:27.227Z,70.07
2023-02-06T14:44:58.998Z,70.74
2023-02-06T14:47:32.524Z,70.94
2023-02-06T14:50:02.800Z,70.58
2023-02-06T14:52:33.457Z,71.01
2023-02-06T14:55:01.459Z,70.87
2023-02-06T14:57:31.291Z,71.16
2023-02-06T15:00:01.572Z,70.75
2023-02-06T15:02:32.607Z,71.36
2023-02-06T15:05:02.582Z,71.13
2023-02-06T15:07:32.557Z,71.52
2023-02-06T15:10:05.810Z,71.86
2023-02-06T15:12:34.469Z,71.41
2023-02-06T15:15:05.457Z,71.73
2023-02-06T15:17:34.627Z,71.92
2023-02-06T15:20:26.120Z,72.27
2023-02-06T15:22:58.132Z,72.26
2023-02-06T15:25:41.366Z,72.26
2023-02-06T15:28:18.939Z,72.39
2023-02-06T15:30:47.551Z,72.69
2023-02-06T15:33:25.149Z,72.98
2023-02-06T15:35:56.326Z,73.09
2023-02-06T15:38:26.385Z,73.28
2023-02-06T15:40:57.141Z,72.94
2023-02-06T15:43:27.543Z,73.07
2023-02-06T15:45:57.973Z,73.35
2023-02-06T15:48:29.210Z,73.97
2023-02-06T15:51:01.221Z,74.39
2023-02-06T15:53:35.859Z,74.73
2023-02-06T15:56:09.939Z,74.90
2023-02-06T15:58:38.143Z,75.04
2023-02-06T16:01:14.346Z,75.64
2023-02-06T16:03:43.386Z,75.80
2023-02-06T16:06:16.815Z,76.77
2023-02-06T16:08:51.442Z,76.80
2023-02-06T16:11:37.117Z,76.93
2023-02-06T16:14:07.327Z,77.17
2023-02-06T16:16:35.356Z,77.45
2023-02-06T16:19:03.304Z,78.03
2023-02-06T16:21:35.477Z,77.65
2023-02-06T16:24:16.460Z,77.77
2023-02-06T16:26:48.138Z,78.09
2023-02-06T16:29:26.919Z,78.26
2023-02-06T16:32:01.440Z,78.44
2023-02-06T16:34:37.205Z,78.80
2023-02-06T16:37:13.024Z,78.56
2023-02-06T16:39:42.471Z,78.90
2023-02-06T16:42:15.047Z,79.17
2023-02-06T16:44:45.621Z,79.30
2023-02-06T16:47:16.064Z,79.19
2023-02-06T16:49:44.408Z,79.10
2023-02-06T16:52:19.243Z,79.04
2023-02-06T16:54:48.021Z,79.40
2023-02-06T16:57:22.808Z,79.57
2023-02-06T16:59:51.624Z,79.92
2023-02-06T17:02:19.561Z,79.67
2023-02-06T17:04:47.559Z,79.81
2023-02-06T17:07:19.475Z,79.96
2023-02-06T17:09:49.006Z,79.78
2023-02-06T17:12:19.606Z,79.93
2023-02-06T17:14:48.800Z,80.11
2023-02-06T17:17:18.826Z,80.22
2023-02-06T17:19:48.055Z,80.03
2023-02-06T17:22:17.628Z,80.27
2023-02-06T17:24:46.411Z,80.54
2023-02-06T17:27:16.640Z,80.75
2023-02-06T17:29:47.446Z,80.65
2023-02-06T17:32:18.250Z,80.80
2023-02-06T17:34:46.055Z,80.86
2023-02-06T17:37:20.953Z,81.12
2023-02-06T17:39:51.982Z,81.50
2023-02-06T17:42:22.034Z,81.61
2023-02-06T17:44:50.569Z,81.60
2023-02-06T17:47:18.460Z,81.69
2023-02-06T17:49:47.215Z,81.91
2023-02-06T17:52:15.461Z,81.98
2023-02-06T17:54:43.411Z,82.36
2023-02-06T17:57:13.417Z,82.42
2023-02-06T17:59:41.353Z,82.72
2023-02-06T18:02:12.712Z,82.69
2023-02-06T18:04:40.658Z,82.83
2023-02-06T18:07:08.941Z,82.69
2023-02-06T18:09:36.853Z,82.60
2023-02-06T18:12:05.024Z,82.89
2023-02-06T18:14:35.675Z,83.35
2023-02-06T18:17:04.110Z,83.18
2023-02-06T18:19:32.419Z,83.07
2023-02-06T18:22:00.519Z,83.08
2023-02-06T18:24:28.440Z,83.25
2023-02-06T18:26:56.427Z,83.74
2023-02-06T18:29:24.415Z,83.65
2023-02-06T18:31:53.666Z,83.77
2023-02-06T18:34:21.867Z,84.17
2023-02-06T18:36:50.022Z,84.23
2023-02-06T18:39:18.100Z,84.44
2023-02-06T18:42:03.408Z,84.42
2023-02-06T18:44:31.699Z,84.63
2023-02-06T18:47:00.891Z,85.05
2023-02-06T18:49:28.847Z,85.07
2023-02-06T18:51:56.757Z,85.18
2023-02-06T18:54:24.696Z,85.39
2023-02-06T18:56:52.732Z,85.25
2023-02-06T18:59:20.996Z,85.15
2023-02-06T19:01:49.235Z,85.27
2023-02-06T19:04:18.540Z,85.53
2023-02-06T19:06:47.064Z,85.69
2023-02-06T19:09:15.596Z,85.71
2023-02-06T19:11:44.210Z,85.95
2023-02-06T19:14:15.423Z,86.04
2023-02-06T19:16:44.737Z,86.17
2023-02-06T19:19:13.307Z,86.19
2023-02-06T19:21:44.314Z,86.51
2023-02-06T19:24:13.928Z,86.99
2023-02-06T19:26:42.816Z,87.06
2023-02-06T19:29:12.619Z,87.20
2023-02-06T19:31:40.681Z,87.09
2023-02-06T19:34:10.809Z,87.32
2023-02-06T19:36:38.694Z,87.67
2023-02-06T19:39:12.874Z,87.59
2023-02-06T19:41:43.673Z,87.60
2023-02-06T19:44:14.973Z,87.65
2023-02-06T19:46:42.791Z,87.68
2023-02-06T19:49:12.318Z,87.91
2023-02-06T19:51:42.372Z,87.81
2023-02-06T19:54:11.567Z,87.60
2023-02-06T19:56:41.816Z,87.66
2023-02-06T19:59:18.263Z,88.11
2023-02-06T20:01:46.927Z,88.13
2023-02-06T20:04:15.453Z,88.21
2023-02-06T20:06:44.608Z,88.35
2023-02-06T20:09:15.769Z,88.18
2023-02-06T20:11:43.746Z,88.59
2023-02-06T20:14:13.389Z,88.89
2023-02-06T20:16:42.838Z,89.04
2023-02-06T20:19:13.609Z,88.99
2023-02-06T20:21:44.532Z,89.10
2023-02-06T20:24:18.438Z,89.26
2023-02-06T20:26:46.718Z,89.44
2023-02-06T20:29:21.643Z,89.63
2023-02-06T20:31:50.488Z,89.53
2023-02-06T20:34:19.164Z,90.00
2023-02-06T20:36:47.707Z,89.95
2023-02-06T20:39:17.609Z,90.09
2023-02-06T20:41:46.453Z,90.50
2023-02-06T20:44:15.124Z,90.55
2023-02-06T20:46:43.989Z,90.66
2023-02-06T20:49:15.739Z,90.24
2023-02-06T20:51:43.853Z,90.96
2023-02-06T20:54:13.561Z,90.77
2023-02-06T20:56:43.172Z,91.15
2023-02-06T20:59:14.016Z,91.09
2023-02-06T21:01:42.228Z,91.50
2023-02-06T21:04:12.439Z,91.61
2023-02-06T21:06:41.464Z,91.67
2023-02-06T21:09:10.839Z,91.57
2023-02-06T21:11:40.930Z,91.65
2023-02-06T21:14:14.698Z,91.73
2023-02-06T21:16:43.741Z,91.57
2023-02-06T21:19:13.651Z,91.63
2023-02-06T21:21:44.896Z,91.84
2023-02-06T21:24:14.032Z,92.17
2023-02-06T21:26:42.097Z,92.19
2023-02-06T21:29:12.318Z,92.26
2023-02-06T21:31:40.359Z,91.99
2023-02-06T21:34:11.230Z,92.19
2023-02-06T21:36:40.164Z,92.60
2023-02-06T21:39:08.950Z,92.74
2023-02-06T21:41:37.752Z,92.99
2023-02-06T21:44:06.229Z,93.17
2023-02-06T21:46:35.673Z,93.44
2023-02-06T21:49:03.726Z,93.16
2023-02-06T21:51:31.716Z,93.28
2023-02-06T21:53:59.884Z,93.56
2023-02-06T21:56:29.150Z,93.93
2023-02-06T21:58:58.097Z,94.15
2023-02-06T22:01:27.948Z,93.67
2023-02-06T22:04:00.964Z,94.16
2023-02-06T22:06:29.271Z,94.36
2023-02-06T22:09:05.234Z,94.41
2023-02-06T22:11:33.571Z,94.49
2023-02-06T22:14:03.347Z,94.79
2023-02-06T22:16:31.364Z,94.61
2023-02-06T22:19:01.780Z,94.86
2023-02-06T22:21:31.461Z,94.71
2023-02-06T22:24:02.254Z,94.74
2023-02-06T22:26:31.198Z,94.87
2023-02-06T22:28:59.682Z,94.71
2023-02-06T22:31:30.057Z,95.08
2023-02-06T22:34:00.426Z,95.33
2023-02-06T22:36:30.348Z,94.88
2023-02-06T22:39:00.663Z,95.34
2023-02-06T22:41:29.315Z,94.97
2023-02-06T22:43:57.353Z,95.02
2023-02-06T22:46:27.339Z,95.29
2023-02-06T22:48:55.861Z,95.40
2023-02-06T22:51:25.556Z,95.48
2023-02-06T22:53:54.232Z,95.20
2023-02-06T22:56:31.533Z,95.57
2023-02-06T22:59:01.775Z,95.56
2023-02-06T23:01:33.313Z,95.71
2023-02-06T23:04:03.651Z,95.96
2023-02-06T23:06:34.212Z,95.77
2023-02-06T23:09:03.589Z,95.98
2023-02-06T23:11:32.345Z,96.24
2023-02-06T23:14:01.930Z,96.01
2023-02-06T23:16:31.910Z,95.80
2023-02-06T23:19:01.889Z,95.87
2023-02-06T23:21:29.778Z,95.96
2023-02-06T23:24:00.765Z,96.17
2023-02-06T23:26:29.692Z,96.08
2023-02-06T23:28:58.780Z,96.09
2023-02-06T23:31:27.979Z,96.12
2023-02-06T23:33:56.533Z,96.08
2023-02-06T23:36:26.787Z,96.10
2023-02-06T23:38:55.577Z,95.93
2023-02-06T23:41:26.805Z,96.23
2023-02-06T23:43:57.260Z,96.38
2023-02-06T23:46:26.037Z,96.33
2023-02-06T23:48:54.428Z,96.51
2023-02-06T23:51:22.714Z,96.63
2023-02-06T23:53:51.292Z,96.95
2023-02-06T23:56:21.267Z,96.98
2023-02-06T23:58:51.312Z,96.97
